Terminal Aerodrome Forecast
Issued by NWS

Home | Current Version | Previous Version | Graphics & Text | Print | Product List | Glossary On
Versions: 1 2 3 4 5 6 7 8 9 10 11 12 13 14 15 16 17 18 19 20 21 22 23
649
FTUS43 KABR 251132
TAFPIR
TAF
KPIR 251132Z 2512/2612 VRB05KT P6SM FEW120
     FM251400 18015G22KT P6SM SKC
     FM260200 16010KT P6SM FEW250=

USA.gov is the U.S. government's official web portal to all federal, state and local government web resources and services.